Terminal Aerodrome Forecast
Issued by NWS

Home | Current Version | Previous Version | Graphics & Text | Print | Product List | Glossary On
Versions: 1 2 3 4 5 6 7 8 9 10 11 12 13 14 15 16 17 18 19 20 21 22 23
000
FTUS42 KMHX 302119 AAB
TAFPGV
TAF AMD
KPGV 302119Z 3021/0118 03010KT P6SM VCSH OVC015
     FM010700 VRB02KT 4SM BR VCSH OVC007
     FM011500 35005KT P6SM VCSH OVC015
      AMD LTD TO CLD VIS AND WIND=

USA.gov is the U.S. government's official web portal to all federal, state and local government web resources and services.